ADDS METAR Data INFO
IDs: Format: Raw Decoded Include TAF

Data at: 0351 UTC 19 Jul 2018

KTUL 190253Z 13005KT 10SM FEW250 27/25 A2987 RMK AO2 SLP106 T02670250 53005
KTUL 190153Z 18007KT 10SM FEW250 29/24 A2986 RMK AO2 SLP102 T02940244
KTUL 190053Z 18004KT 10SM FEW250 31/24 A2986 RMK AO2 SLP102 T03110244
KTUL 182353Z 20008KT 10SM FEW120 BKN250 32/23 A2986 RMK AO2 SLP101 T03170228 10317 20278 58012
KTUL 182253Z 18007KT 10SM FEW180 SCT250 31/24 A2987 RMK AO2 SLP106 T03110239
KTUL 182153Z 18007KT 10SM FEW026 SCT110 SCT150 BKN250 31/24 A2988 RMK AO2 SLP109 TCU DSNT NW T03060239
KTUL 182053Z 16006KT 10SM FEW026 SCT110 BKN150 BKN250 31/24 A2989 RMK AO2 SLP114 T03110239 58017
KTUL 181953Z 12003KT 10SM FEW025 BKN110 BKN130 OVC250 30/24 A2992 RMK AO2 SLP122 T03000239
KTUL 181853Z VRB03KT 10SM FEW022 SCT100 BKN140 29/23 A2993 RMK AO2 SLP126 T02940233
KTUL 181753Z 19004KT 10SM BKN120 BKN150 BKN250 27/23 A2995 RMK AO2 SLP132 60001 T02720233 10278 20244 56001
KTUL 181653Z 18006KT 10SM SCT120 BKN150 OVC250 27/23 A2995 RMK AO2 SLP132 T02720233
KTUL 181553Z 12005KT 10SM FEW100 OVC120 27/23 A2994 RMK AO2 SLP131 SHRA N T02670233
KTUL 181453Z 08006KT 10SM FEW015 SCT110 BKN140 OVC250 27/23 A2995 RMK AO2 SLP132 60001 T02720228 58002
KTUL 181353Z 10003KT 10SM FEW010 BKN110 OVC250 26/23 A2996 RMK AO2 SLP137 T02560233
KTUL 181253Z 00000KT 10SM FEW080 BKN110 OVC140 24/23 A2995 RMK AO2 RAE44 SLP133 P0001 T02440233
KTUL 181153Z 00000KT 10SM -RA FEW120 SCT160 OVC190 25/23 A2995 RMK AO2 RAB44 SLP134 P0000 60000 T02500228 10261 20244 55006
KTUL 181053Z VRB04KT 10SM FEW090 BKN160 OVC190 25/23 A2995 RMK AO2 SLP133 T02500228
KTUL 180953Z 02008KT 10SM FEW120 BKN190 OVC250 25/23 A2996 RMK AO2 RAE03B31E42 SLP135 P0000 T02500228
KTUL 180853Z 32007KT 10SM -RA BKN130 OVC190 25/23 A2997 RMK AO2 RAB47 SLP141 P0000 60000 T02500228 55003
KTUL 180753Z 10003KT 10SM SCT100 BKN150 OVC190 26/23 A2995 RMK AO2 SLP133 T02560228
KTUL 180653Z 10004KT 10SM SCT110 BKN140 OVC250 26/23 A2996 RMK AO2 SLP136 T02560228
KTUL 180553Z 00000KT 10SM FEW065 BKN100 OVC250 26/22 A2998 RMK AO2 SLP143 T02610222 10311 20256 403390250 51008
KTUL 180453Z 09004KT 10SM FEW065 FEW110 BKN250 26/22 A2997 RMK AO2 SLP140 FRQ LTGIC DSNT W CB DSNT W MOV SE T02610217
KTUL 180353Z 09004KT 10SM FEW060 SCT110 SCT250 27/22 A2997 RMK AO2 SLP139 T02670222
KTUL 180253Z 09005KT 10SM SCT100 BKN250 28/23 A2996 RMK AO2 SLP135 T02780228 53001
KTUL 180153Z 09006KT 10SM SCT100 BKN140 BKN250 28/23 A2994 RMK AO2 SLP129 T02830228
KTUL 180053Z VRB06KT 10SM SCT100 BKN140 OVC250 30/22 A2994 RMK AO2 SLP129 T03000222
KTUL 172353Z 05006KT 10SM FEW065 BKN100 BKN250 31/23 A2995 RMK AO2 SLP134 T03110233 10339 20294 55005
KTUL 172253Z 09007KT 10SM SCT140 BKN160 OVC250 31/24 A2994 RMK AO2 SLP130 T03110239
KTUL 172153Z 10007KT 10SM SCT140 BKN160 OVC250 32/25 A2994 RMK AO2 SLP130 T03170250
KTUL 172053Z 14005KT 10SM FEW120 BKN140 OVC250 31/24 A2997 RMK AO2 SLP139 T03110244 58010
KTUL 171953Z 01007KT 10SM FEW120 BKN140 OVC250 31/23 A2999 RMK AO2 TSB1859E28 SLP145 ACC NE-SE T03060233
KTUL 171934Z 03007KT 010V080 10SM FEW038 FEW120 BKN160 OVC250 31/23 A2999 RMK AO2 LTG DSNT SE TSB1859E28 LTG DSNT SE TS MOV E T03060233
KTUL 171905Z 01011G20KT 10SM TS FEW043CB SCT110 OVC150 30/22 A3001 RMK AO2 TSB1859 OCNL LTGICCC SE-SW TS SE-SW MOV E T03000222
KTUL 171853Z 35014G26KT 10SM BKN043 BKN150 OVC250 29/23 A3001 RMK AO2 PK WND 33026/1845 SLP154 TCU DSNT SE SHRA SE-SW T02940228
KTUL 171753Z 00000KT 10SM FEW040 SCT160 OVC250 34/21 A3000 RMK AO2 RAB1659E06 SLP149 P0000 60000 T03390211 10339 20267 58004
KTUL 171653Z 19009KT 10SM FEW035 BKN080 OVC100 31/24 A3001 RMK AO2 RAB38E47 PRESFR SLP150 P0000 T03060239
KTUL 171553Z 10SM SCT110 OVC250 31/23 A3001 RMK AO2 LTG DSNT SW AND NW SLP153 T03110233